createdAt,value
2024-02-11T00:00:30.890Z,997.0
2024-02-11T00:01:31.017Z,997.0
2024-02-11T00:02:31.011Z,997.0
2024-02-11T00:03:30.892Z,997.0
2024-02-11T00:04:31.191Z,996.9
2024-02-11T00:05:32.965Z,996.9
2024-02-11T00:06:30.937Z,996.9
2024-02-11T00:07:30.934Z,996.9
2024-02-11T00:08:30.878Z,996.8
2024-02-11T00:09:30.912Z,996.9
2024-02-11T00:10:30.954Z,996.9
2024-02-11T00:11:30.849Z,996.9
2024-02-11T00:12:31.221Z,996.9
2024-02-11T00:13:30.912Z,996.9
2024-02-11T00:14:31.265Z,996.8
2024-02-11T00:15:30.844Z,996.8
2024-02-11T00:16:30.927Z,996.9
2024-02-11T00:17:31.038Z,996.8
2024-02-11T00:18:30.845Z,996.9
2024-02-11T00:19:30.907Z,996.8
2024-02-11T00:20:30.960Z,996.8
2024-02-11T00:21:30.832Z,996.9
2024-02-11T00:22:31.072Z,996.8
2024-02-11T00:23:30.986Z,996.8
2024-02-11T00:24:30.903Z,996.9
2024-02-11T00:25:30.899Z,996.8
2024-02-11T00:26:32.992Z,996.9
2024-02-11T00:27:31.265Z,996.8
2024-02-11T00:28:30.980Z,996.8
2024-02-11T00:29:30.858Z,996.8
2024-02-11T00:30:30.897Z,996.7
2024-02-11T00:31:30.927Z,996.8
2024-02-11T00:32:31.243Z,996.8
2024-02-11T00:33:30.996Z,996.8
2024-02-11T00:34:30.995Z,996.7
2024-02-11T00:35:31.025Z,996.8
2024-02-11T00:36:30.824Z,996.8
2024-02-11T00:37:31.495Z,996.8
2024-02-11T00:38:30.868Z,996.8
2024-02-11T00:39:30.821Z,996.7
2024-02-11T00:40:30.845Z,996.8
2024-02-11T00:41:30.853Z,996.8
2024-02-11T00:42:31.305Z,996.7
2024-02-11T00:43:30.917Z,996.8
2024-02-11T00:44:30.823Z,996.7
2024-02-11T00:45:30.840Z,996.7
2024-02-11T00:46:30.818Z,996.7
2024-02-11T00:47:33.957Z,996.7
2024-02-11T00:48:30.932Z,996.7
2024-02-11T00:49:30.829Z,996.7
2024-02-11T00:50:30.823Z,996.7
2024-02-11T00:51:31.140Z,996.7
2024-02-11T00:52:31.001Z,996.7
2024-02-11T00:53:30.993Z,996.7
2024-02-11T00:54:30.919Z,996.7
2024-02-11T00:55:30.829Z,996.6
2024-02-11T00:56:31.059Z,996.7
2024-02-11T00:57:30.945Z,996.7
2024-02-11T00:58:30.821Z,996.6
2024-02-11T00:59:30.854Z,996.6
2024-02-11T01:00:30.820Z,996.7
2024-02-11T01:01:30.856Z,996.6
2024-02-11T01:02:31.008Z,996.5
2024-02-11T01:03:30.808Z,996.6
2024-02-11T01:04:30.856Z,996.6
2024-02-11T01:05:30.851Z,996.6
2024-02-11T01:06:30.923Z,996.6
2024-02-11T01:07:32.046Z,996.5
2024-02-11T01:08:34.135Z,996.6
2024-02-11T01:09:30.755Z,996.6
2024-02-11T01:10:30.835Z,996.6
2024-02-11T01:11:30.768Z,996.5
2024-02-11T01:12:31.263Z,996.6
2024-02-11T01:13:30.950Z,996.5
2024-02-11T01:14:30.747Z,996.5
2024-02-11T01:15:30.796Z,996.5
2024-02-11T01:16:30.868Z,996.5
2024-02-11T01:17:31.009Z,996.5
2024-02-11T01:18:30.955Z,996.5
2024-02-11T01:19:30.778Z,996.5
2024-02-11T01:20:30.796Z,996.4
2024-02-11T01:21:30.838Z,996.3
2024-02-11T01:22:31.023Z,996.4
2024-02-11T01:23:30.846Z,996.3
2024-02-11T01:24:30.936Z,996.5
2024-02-11T01:25:30.911Z,996.4
2024-02-11T01:26:30.799Z,996.5
2024-02-11T01:27:31.284Z,996.3
2024-02-11T01:28:31.390Z,996.4
2024-02-11T01:29:34.253Z,996.4
2024-02-11T01:30:30.937Z,996.5
2024-02-11T01:31:30.866Z,996.4
2024-02-11T01:32:31.127Z,996.5
2024-02-11T01:33:30.902Z,996.5
2024-02-11T01:34:30.926Z,996.4
2024-02-11T01:35:31.013Z,996.5
2024-02-11T01:36:30.808Z,996.4
2024-02-11T01:37:30.762Z,996.4
2024-02-11T01:38:30.798Z,996.4
2024-02-11T01:39:30.852Z,996.4
2024-02-11T01:40:30.848Z,996.4
2024-02-11T01:41:30.770Z,996.4
2024-02-11T01:42:30.773Z,996.3
2024-02-11T01:43:30.853Z,996.4
2024-02-11T01:44:30.913Z,996.3
2024-02-11T01:45:30.782Z,996.3
2024-02-11T01:46:30.801Z,996.3
2024-02-11T01:47:31.166Z,996.2
2024-02-11T01:48:30.786Z,996.3
2024-02-11T01:49:32.153Z,996.3
2024-02-11T01:50:30.952Z,996.3
2024-02-11T01:51:30.792Z,996.2
2024-02-11T01:52:30.757Z,996.3
2024-02-11T01:53:30.728Z,996.2
2024-02-11T01:54:31.017Z,996.2
2024-02-11T01:55:30.737Z,996.3
2024-02-11T01:56:30.911Z,996.3
2024-02-11T01:57:30.730Z,996.2
2024-02-11T01:58:30.801Z,996.2
2024-02-11T01:59:30.719Z,996.2
2024-02-11T02:00:30.790Z,996.2
2024-02-11T02:01:30.913Z,996.2
2024-02-11T02:02:30.790Z,996.3
2024-02-11T02:03:30.700Z,996.2
2024-02-11T02:04:30.963Z,996.2
2024-02-11T02:05:30.786Z,996.2
2024-02-11T02:06:30.767Z,996.2
2024-02-11T02:07:30.768Z,996.2
2024-02-11T02:08:30.718Z,996.2
2024-02-11T02:09:30.751Z,996.2
2024-02-11T02:10:33.199Z,996.2
2024-02-11T02:11:30.795Z,996.2
2024-02-11T02:12:30.670Z,996.2
2024-02-11T02:13:30.862Z,996.1
2024-02-11T02:14:30.670Z,996.1
2024-02-11T02:15:30.724Z,996.2
2024-02-11T02:16:30.794Z,996.2
2024-02-11T02:17:30.717Z,996.2
2024-02-11T02:18:30.807Z,996.1
2024-02-11T02:19:30.680Z,996.2
2024-02-11T02:20:30.689Z,996.1
2024-02-11T02:21:30.862Z,996.1
2024-02-11T02:22:30.823Z,996.1
2024-02-11T02:23:30.884Z,996.1
2024-02-11T02:24:30.726Z,996.2
2024-02-11T02:25:30.851Z,996.2
2024-02-11T02:26:30.694Z,996.2
2024-02-11T02:27:30.677Z,996.1
2024-02-11T02:28:30.676Z,996.1
2024-02-11T02:29:30.663Z,996.1
2024-02-11T02:30:30.703Z,996.1
2024-02-11T02:31:32.453Z,996.2
2024-02-11T02:32:30.699Z,996.2
2024-02-11T02:33:30.671Z,996.1
2024-02-11T02:34:30.755Z,996.2
2024-02-11T02:35:30.718Z,996.1
2024-02-11T02:36:30.642Z,996.1
2024-02-11T02:37:30.648Z,996.1
2024-02-11T02:38:30.767Z,996.2
2024-02-11T02:39:30.596Z,996.0
2024-02-11T02:40:30.693Z,996.0
2024-02-11T02:41:30.674Z,996.0
2024-02-11T02:42:30.685Z,996.0
2024-02-11T02:43:30.649Z,996.1
2024-02-11T02:44:30.636Z,996.1
2024-02-11T02:45:30.796Z,996.0
2024-02-11T02:46:30.637Z,996.0
2024-02-11T02:47:30.667Z,996.0
2024-02-11T02:48:30.675Z,996.0
2024-02-11T02:49:30.637Z,996.0
2024-02-11T02:50:30.635Z,996.0
2024-02-11T02:51:30.606Z,996.0
2024-02-11T02:52:32.955Z,996.0
2024-02-11T02:53:30.613Z,995.9
2024-02-11T02:54:30.595Z,996.0
2024-02-11T02:55:30.656Z,996.0
2024-02-11T02:56:30.807Z,995.9
2024-02-11T02:57:30.623Z,995.9
2024-02-11T02:58:30.619Z,996.0
2024-02-11T02:59:30.594Z,996.0
2024-02-11T03:00:30.597Z,995.9
2024-02-11T03:01:30.646Z,995.9
2024-02-11T03:02:30.595Z,995.9
2024-02-11T03:03:30.783Z,995.9
2024-02-11T03:04:30.673Z,995.9
2024-02-11T03:05:30.682Z,995.9
2024-02-11T03:06:30.842Z,995.9
2024-02-11T03:07:30.696Z,995.9
2024-02-11T03:08:30.617Z,995.9
2024-02-11T03:09:30.597Z,995.9
2024-02-11T03:10:30.560Z,996.0
2024-02-11T03:11:30.659Z,995.8
2024-02-11T03:12:30.590Z,995.9
2024-02-11T03:13:32.760Z,995.9
2024-02-11T03:14:30.591Z,995.8
2024-02-11T03:15:30.573Z,995.9
2024-02-11T03:16:30.607Z,995.9
2024-02-11T03:17:30.779Z,995.8
2024-02-11T03:18:30.756Z,995.8
2024-02-11T03:19:30.562Z,995.9
2024-02-11T03:20:30.586Z,995.8
2024-02-11T03:21:30.632Z,995.8
2024-02-11T03:22:30.600Z,995.9
2024-02-11T03:23:30.589Z,995.9
2024-02-11T03:24:30.540Z,995.8
2024-02-11T03:25:30.575Z,995.7
2024-02-11T03:26:32.040Z,995.8
2024-02-11T03:27:30.558Z,995.8
2024-02-11T03:28:30.635Z,995.9
2024-02-11T03:29:30.949Z,995.8
2024-02-11T03:30:30.596Z,995.7
2024-02-11T03:31:30.554Z,995.7
2024-02-11T03:32:30.830Z,995.7
2024-02-11T03:33:30.633Z,995.7
2024-02-11T03:34:33.452Z,995.8
2024-02-11T03:35:30.626Z,995.7
2024-02-11T03:36:30.792Z,995.7
2024-02-11T03:37:31.106Z,995.6
2024-02-11T03:38:30.774Z,995.7
2024-02-11T03:39:31.356Z,995.6
2024-02-11T03:40:30.566Z,995.6
2024-02-11T03:41:30.567Z,995.6
2024-02-11T03:42:30.551Z,995.6
2024-02-11T03:43:30.622Z,995.6
2024-02-11T03:44:30.547Z,995.7
2024-02-11T03:45:30.547Z,995.6
2024-02-11T03:46:30.549Z,995.6
2024-02-11T03:47:30.678Z,995.6
2024-02-11T03:48:30.647Z,995.6
2024-02-11T03:49:30.490Z,995.6
2024-02-11T03:50:30.716Z,995.6
2024-02-11T03:51:30.638Z,995.6
2024-02-11T03:52:30.525Z,995.6
2024-02-11T03:53:30.524Z,995.6
2024-02-11T03:54:30.626Z,995.6
2024-02-11T03:55:33.142Z,995.6
2024-02-11T03:56:30.828Z,995.6
2024-02-11T03:57:30.531Z,995.5
2024-02-11T03:58:30.501Z,995.5
2024-02-11T03:59:30.582Z,995.6
2024-02-11T04:00:30.550Z,995.5
2024-02-11T04:01:30.678Z,995.5
2024-02-11T04:02:30.486Z,995.5
2024-02-11T04:03:30.544Z,995.5
2024-02-11T04:04:30.565Z,995.5
2024-02-11T04:05:30.682Z,995.5
2024-02-11T04:06:30.582Z,995.5
2024-02-11T04:07:30.528Z,995.5
2024-02-11T04:08:30.608Z,995.5
2024-02-11T04:09:30.624Z,995.4
2024-02-11T04:10:30.654Z,995.4
2024-02-11T04:11:30.499Z,995.4
2024-02-11T04:12:30.652Z,995.4
2024-02-11T04:13:30.496Z,995.4
2024-02-11T04:14:30.542Z,995.3
2024-02-11T04:15:30.502Z,995.4
2024-02-11T04:16:32.951Z,995.3
2024-02-11T04:17:30.478Z,995.4
2024-02-11T04:18:30.562Z,995.3
2024-02-11T04:19:30.531Z,995.3
2024-02-11T04:20:30.543Z,995.3
2024-02-11T04:21:30.458Z,995.3
2024-02-11T04:22:30.580Z,995.3
2024-02-11T04:23:30.596Z,995.2
2024-02-11T04:24:30.504Z,995.2
2024-02-11T04:25:30.834Z,995.3
2024-02-11T04:26:30.605Z,995.3
2024-02-11T04:27:30.470Z,995.3
2024-02-11T04:28:30.466Z,995.2
2024-02-11T04:29:30.553Z,995.2
2024-02-11T04:30:30.533Z,995.2
2024-02-11T04:31:30.508Z,995.2
2024-02-11T04:32:30.512Z,995.2
2024-02-11T04:33:30.481Z,995.2
2024-02-11T04:34:30.621Z,995.2
2024-02-11T04:35:30.507Z,995.2
2024-02-11T04:36:30.435Z,995.1
2024-02-11T04:37:33.454Z,995.2
2024-02-11T04:38:30.492Z,995.2
2024-02-11T04:39:30.439Z,995.1
2024-02-11T04:40:30.447Z,995.1
2024-02-11T04:41:30.513Z,995.1
2024-02-11T04:42:30.465Z,995.1
2024-02-11T04:43:30.527Z,995.1
2024-02-11T04:44:30.467Z,995.0
2024-02-11T04:45:30.604Z,995.0
2024-02-11T04:46:30.515Z,995.1
2024-02-11T04:47:31.490Z,995.1
2024-02-11T04:48:30.604Z,995.1
2024-02-11T04:49:30.589Z,995.1
2024-02-11T04:50:30.435Z,995.0
2024-02-11T04:51:30.460Z,995.0
2024-02-11T04:52:30.471Z,995.0
2024-02-11T04:53:30.484Z,995.0
2024-02-11T04:54:30.434Z,995.0
2024-02-11T04:55:30.436Z,995.0
2024-02-11T04:56:30.498Z,995.0
2024-02-11T04:57:30.482Z,994.9
2024-02-11T04:58:33.383Z,995.0
2024-02-11T04:59:30.441Z,994.9
2024-02-11T05:00:30.437Z,994.9
2024-02-11T05:01:30.442Z,994.9
2024-02-11T05:02:30.447Z,994.9
2024-02-11T05:03:30.432Z,994.9
2024-02-11T05:04:30.480Z,994.8
2024-02-11T05:05:30.745Z,994.8
2024-02-11T05:06:30.518Z,994.8
2024-02-11T05:07:30.407Z,994.9
2024-02-11T05:08:30.470Z,994.8
2024-02-11T05:09:30.445Z,994.9
2024-02-11T05:10:30.432Z,994.8
2024-02-11T05:11:30.537Z,994.8
2024-02-11T05:12:30.440Z,994.9
2024-02-11T05:13:30.672Z,994.8
2024-02-11T05:14:30.404Z,994.9
2024-02-11T05:15:30.534Z,994.9
2024-02-11T05:16:30.455Z,994.9
2024-02-11T05:17:30.406Z,994.8
2024-02-11T05:18:30.647Z,994.8
2024-02-11T05:19:33.488Z,994.7
2024-02-11T05:20:30.555Z,994.8
2024-02-11T05:21:30.422Z,994.8
2024-02-11T05:22:30.415Z,994.9
2024-02-11T05:23:30.428Z,994.8
2024-02-11T05:24:30.378Z,994.8
2024-02-11T05:25:30.483Z,994.8
2024-02-11T05:26:30.381Z,994.8
2024-02-11T05:27:30.414Z,994.8
2024-02-11T05:28:30.401Z,994.9
2024-02-11T05:29:30.340Z,994.8
2024-02-11T05:30:30.640Z,994.8
2024-02-11T05:31:30.438Z,994.8
2024-02-11T05:32:30.417Z,994.8
2024-02-11T05:33:30.658Z,994.7
2024-02-11T05:34:30.357Z,994.9
2024-02-11T05:35:30.439Z,994.8
2024-02-11T05:36:30.361Z,994.8
2024-02-11T05:37:30.389Z,994.8
2024-02-11T05:38:33.362Z,994.7
2024-02-11T05:39:30.475Z,994.7
2024-02-11T05:40:33.693Z,994.8
2024-02-11T05:41:30.513Z,994.8
2024-02-11T05:42:30.359Z,994.7
2024-02-11T05:43:30.372Z,994.8
2024-02-11T05:44:30.364Z,994.7
2024-02-11T05:45:30.378Z,994.7
2024-02-11T05:46:30.380Z,994.7
2024-02-11T05:47:30.408Z,994.7
2024-02-11T05:48:30.519Z,994.6
2024-02-11T05:49:30.374Z,994.7
2024-02-11T05:50:30.418Z,994.6
2024-02-11T05:51:30.351Z,994.6
2024-02-11T05:52:31.256Z,994.6
2024-02-11T05:53:30.403Z,994.6
2024-02-11T05:54:30.347Z,994.7
2024-02-11T05:55:30.363Z,994.7
2024-02-11T05:56:30.386Z,994.7
2024-02-11T05:57:30.352Z,994.6
2024-02-11T05:58:30.403Z,994.6
2024-02-11T05:59:30.341Z,994.6
2024-02-11T06:00:30.854Z,994.5
2024-02-11T06:01:33.518Z,994.6
2024-02-11T06:02:30.322Z,994.6
2024-02-11T06:03:30.638Z,994.5
2024-02-11T06:04:30.417Z,994.6
2024-02-11T06:05:30.978Z,994.7
2024-02-11T06:06:30.495Z,994.6
2024-02-11T06:07:30.553Z,994.5
2024-02-11T06:08:30.835Z,994.6
2024-02-11T06:09:30.384Z,994.6
2024-02-11T06:10:30.632Z,994.6
2024-02-11T06:11:30.598Z,994.6
2024-02-11T06:12:30.658Z,994.6
2024-02-11T06:13:30.488Z,994.5
2024-02-11T06:14:30.576Z,994.5
2024-02-11T06:15:30.371Z,994.6
2024-02-11T06:16:30.477Z,994.6
2024-02-11T06:17:30.453Z,994.7
2024-02-11T06:18:30.635Z,994.6
2024-02-11T06:19:30.487Z,994.6
2024-02-11T06:20:31.697Z,994.7
2024-02-11T06:21:31.120Z,994.8
2024-02-11T06:22:34.835Z,994.7
2024-02-11T06:23:30.372Z,994.8
2024-02-11T06:24:30.514Z,994.8
2024-02-11T06:25:30.860Z,994.8
2024-02-11T06:26:30.391Z,994.7
2024-02-11T06:27:30.630Z,994.8
2024-02-11T06:28:30.396Z,994.8
2024-02-11T06:29:30.414Z,994.8
2024-02-11T06:30:30.313Z,994.9
2024-02-11T06:31:31.219Z,994.9
2024-02-11T06:32:32.254Z,994.9
2024-02-11T06:33:30.594Z,994.9
2024-02-11T06:34:30.345Z,994.8
2024-02-11T06:35:30.349Z,994.9
2024-02-11T06:36:30.560Z,994.8
2024-02-11T06:37:30.289Z,994.8
2024-02-11T06:38:30.303Z,994.8
2024-02-11T06:39:30.372Z,994.8
2024-02-11T06:40:30.357Z,994.9
2024-02-11T06:41:30.436Z,994.8
2024-02-11T06:42:31.641Z,994.8
2024-02-11T06:43:30.314Z,994.8
2024-02-11T06:44:30.376Z,994.8
2024-02-11T06:45:30.829Z,994.8
2024-02-11T06:46:30.320Z,994.8
2024-02-11T06:47:30.625Z,994.8
2024-02-11T06:48:30.433Z,994.8
2024-02-11T06:49:30.303Z,994.9
2024-02-11T06:50:30.281Z,995.0
2024-02-11T06:51:30.452Z,994.9
2024-02-11T06:52:30.248Z,994.9
2024-02-11T06:53:30.260Z,995.0
2024-02-11T06:54:31.463Z,995.0
2024-02-11T06:55:30.328Z,994.9
2024-02-11T06:56:30.290Z,995.0
2024-02-11T06:57:30.436Z,995.1
2024-02-11T06:58:30.389Z,995.0
2024-02-11T06:59:30.343Z,995.0
2024-02-11T07:00:30.291Z,995.0
2024-02-11T07:01:30.231Z,995.1
2024-02-11T07:02:30.327Z,995.0
2024-02-11T07:03:31.814Z,995.0
2024-02-11T07:04:34.143Z,995.0
2024-02-11T07:05:30.319Z,994.9
2024-02-11T07:06:30.304Z,994.9
2024-02-11T07:07:30.294Z,994.9
2024-02-11T07:08:30.361Z,995.0
2024-02-11T07:09:30.620Z,994.9
2024-02-11T07:10:30.201Z,994.9
2024-02-11T07:11:30.226Z,995.0
2024-02-11T07:12:30.192Z,994.9
2024-02-11T07:13:32.364Z,994.9
2024-02-11T07:14:30.221Z,994.9
2024-02-11T07:15:30.419Z,994.9
2024-02-11T07:16:30.411Z,994.9
2024-02-11T07:17:30.520Z,994.9
2024-02-11T07:18:30.699Z,994.9
2024-02-11T07:19:30.406Z,995.0
2024-02-11T07:20:30.632Z,994.9
2024-02-11T07:21:30.669Z,995.0
2024-02-11T07:22:30.473Z,995.0
2024-02-11T07:23:30.354Z,995.0
2024-02-11T07:24:32.721Z,994.9
2024-02-11T07:25:30.284Z,995.1
2024-02-11T07:26:30.424Z,994.9
2024-02-11T07:27:30.352Z,994.9
2024-02-11T07:28:30.223Z,994.9
2024-02-11T07:29:30.178Z,994.9
2024-02-11T07:30:30.243Z,994.9
2024-02-11T07:31:30.196Z,995.0
2024-02-11T07:32:30.660Z,994.9
2024-02-11T07:33:30.280Z,994.9
2024-02-11T07:34:30.370Z,994.9
2024-02-11T07:35:30.256Z,994.9
2024-02-11T07:36:30.220Z,994.8
2024-02-11T07:37:30.208Z,994.9
2024-02-11T07:38:30.266Z,994.9
2024-02-11T07:39:30.249Z,994.9
2024-02-11T07:40:30.162Z,994.9
2024-02-11T07:41:30.161Z,994.9
2024-02-11T07:42:30.158Z,994.9
2024-02-11T07:43:30.211Z,994.9
2024-02-11T07:44:30.252Z,994.9
2024-02-11T07:45:32.566Z,995.0
2024-02-11T07:46:30.152Z,994.9
2024-02-11T07:47:30.236Z,994.9
2024-02-11T07:48:30.277Z,994.9
2024-02-11T07:49:30.217Z,994.9
2024-02-11T07:50:30.248Z,994.9
2024-02-11T07:51:30.234Z,994.9
2024-02-11T07:52:30.504Z,994.9
2024-02-11T07:53:30.209Z,994.9
2024-02-11T07:54:30.181Z,994.9
2024-02-11T07:55:30.232Z,994.8
2024-02-11T07:56:30.213Z,994.9
2024-02-11T07:57:30.144Z,994.9
2024-02-11T07:58:30.165Z,994.9
2024-02-11T07:59:30.352Z,994.9
2024-02-11T08:00:30.301Z,994.9
2024-02-11T08:01:30.203Z,994.9
2024-02-11T08:02:30.590Z,994.9
2024-02-11T08:03:30.469Z,994.9
2024-02-11T08:04:30.313Z,994.8
2024-02-11T08:05:31.080Z,994.9
2024-02-11T08:06:33.748Z,994.9
2024-02-11T08:07:30.729Z,994.9
2024-02-11T08:08:30.922Z,994.8
2024-02-11T08:09:30.820Z,994.9
2024-02-11T08:10:30.579Z,994.9
2024-02-11T08:11:30.312Z,994.8
2024-02-11T08:12:30.507Z,994.8
2024-02-11T08:13:30.295Z,994.9
2024-02-11T08:14:30.336Z,994.8
2024-02-11T08:15:30.196Z,994.8
2024-02-11T08:16:30.111Z,994.8
2024-02-11T08:17:30.674Z,994.8
2024-02-11T08:18:30.393Z,994.8
2024-02-11T08:19:33.261Z,994.9
2024-02-11T08:20:30.875Z,994.8
2024-02-11T08:21:31.175Z,994.9
2024-02-11T08:22:30.497Z,994.9
2024-02-11T08:23:30.344Z,994.9
2024-02-11T08:24:30.727Z,994.8
2024-02-11T08:25:30.127Z,994.8
2024-02-11T08:26:31.772Z,994.8
2024-02-11T08:27:30.225Z,994.8
2024-02-11T08:28:30.272Z,994.8
2024-02-11T08:29:30.161Z,994.9
2024-02-11T08:30:30.089Z,994.8
2024-02-11T08:31:30.544Z,994.8
2024-02-11T08:32:30.313Z,994.8
2024-02-11T08:33:30.172Z,994.8
2024-02-11T08:34:30.259Z,994.8
2024-02-11T08:35:30.262Z,994.8
2024-02-11T08:36:30.111Z,994.8
2024-02-11T08:37:30.116Z,994.7
2024-02-11T08:38:30.166Z,994.7
2024-02-11T08:39:30.132Z,994.7
2024-02-11T08:40:30.135Z,994.7
2024-02-11T08:41:30.128Z,994.7
2024-02-11T08:42:30.113Z,994.7
2024-02-11T08:43:30.162Z,994.7
2024-02-11T08:44:30.175Z,994.7
2024-02-11T08:45:30.213Z,994.7
2024-02-11T08:46:30.130Z,994.7
2024-02-11T08:47:31.630Z,994.8
2024-02-11T08:48:30.220Z,994.7
2024-02-11T08:49:30.190Z,994.7
2024-02-11T08:50:30.286Z,994.7
2024-02-11T08:51:30.094Z,994.8
2024-02-11T08:52:30.077Z,994.7
2024-02-11T08:53:30.369Z,994.8
2024-02-11T08:54:30.314Z,994.7
2024-02-11T08:55:30.158Z,994.7
2024-02-11T08:56:30.160Z,994.7
2024-02-11T08:57:30.071Z,994.8
2024-02-11T08:58:30.101Z,994.8
2024-02-11T08:59:30.081Z,994.8
2024-02-11T09:00:30.161Z,994.8
2024-02-11T09:01:30.077Z,994.8
2024-02-11T09:02:32.055Z,994.8
2024-02-11T09:03:30.145Z,994.8
2024-02-11T09:04:30.118Z,994.7
2024-02-11T09:05:30.294Z,994.8
2024-02-11T09:06:30.234Z,994.9
2024-02-11T09:07:30.121Z,994.8
2024-02-11T09:08:31.568Z,994.8
2024-02-11T09:09:30.060Z,994.8
2024-02-11T09:10:30.054Z,994.8
2024-02-11T09:11:30.247Z,994.9
2024-02-11T09:12:30.027Z,994.9
2024-02-11T09:13:30.030Z,994.9
2024-02-11T09:14:30.258Z,994.9
2024-02-11T09:15:30.036Z,994.8
2024-02-11T09:16:30.346Z,994.9
2024-02-11T09:17:30.135Z,994.9
2024-02-11T09:18:30.183Z,994.8
2024-02-11T09:19:30.140Z,994.8
2024-02-11T09:20:30.056Z,994.8
2024-02-11T09:21:30.083Z,994.8
2024-02-11T09:22:30.081Z,994.8
2024-02-11T09:23:30.092Z,994.8
2024-02-11T09:24:30.080Z,994.8
2024-02-11T09:25:30.017Z,994.8
2024-02-11T09:26:30.063Z,995.0
2024-02-11T09:27:30.657Z,994.9
2024-02-11T09:28:30.045Z,995.0
2024-02-11T09:29:31.569Z,995.0
2024-02-11T09:30:30.003Z,994.9
2024-02-11T09:31:30.072Z,994.9
2024-02-11T09:32:30.259Z,994.8
2024-02-11T09:33:30.287Z,994.8
2024-02-11T09:34:30.098Z,994.8
2024-02-11T09:35:30.268Z,994.9
2024-02-11T09:36:30.021Z,994.8
2024-02-11T09:37:30.047Z,994.8
2024-02-11T09:38:30.198Z,994.9
2024-02-11T09:39:30.026Z,994.8
2024-02-11T09:40:30.012Z,994.8
2024-02-11T09:41:30.043Z,994.8
2024-02-11T09:42:30.084Z,994.8
2024-02-11T09:43:30.028Z,994.8
2024-02-11T09:44:30.055Z,994.8
2024-02-11T09:45:30.035Z,994.8
2024-02-11T09:46:29.999Z,994.8
2024-02-11T09:47:30.018Z,994.8
2024-02-11T09:48:30.092Z,994.8
2024-02-11T09:49:30.323Z,994.9
2024-02-11T09:50:31.595Z,994.8
2024-02-11T09:51:30.076Z,994.9
2024-02-11T09:52:30.029Z,994.8
2024-02-11T09:53:30.026Z,994.9
2024-02-11T09:54:30.773Z,994.8
2024-02-11T09:55:30.804Z,994.8
2024-02-11T09:56:30.818Z,994.8
2024-02-11T09:57:30.054Z,994.8
2024-02-11T09:58:31.582Z,994.8
2024-02-11T09:59:30.120Z,994.7
2024-02-11T10:00:30.099Z,994.7
2024-02-11T10:01:30.122Z,994.8
2024-02-11T10:02:30.077Z,994.8
2024-02-11T10:03:30.009Z,994.7
2024-02-11T10:04:30.051Z,994.7
2024-02-11T10:05:30.165Z,994.7
2024-02-11T10:06:32.317Z,994.6
2024-02-11T10:07:30.243Z,994.7
2024-02-11T10:08:30.080Z,994.7
2024-02-11T10:09:30.011Z,994.7
2024-02-11T10:10:30.002Z,994.6
2024-02-11T10:11:31.694Z,994.6
2024-02-11T10:12:30.001Z,994.7
2024-02-11T10:13:30.006Z,994.6
2024-02-11T10:14:30.233Z,994.6
2024-02-11T10:15:29.956Z,994.6
2024-02-11T10:16:29.992Z,994.6
2024-02-11T10:17:30.036Z,994.6
2024-02-11T10:18:30.204Z,994.5
2024-02-11T10:19:29.989Z,994.5
2024-02-11T10:20:30.142Z,994.6
2024-02-11T10:21:29.947Z,994.6
2024-02-11T10:22:29.989Z,994.5
2024-02-11T10:23:30.163Z,994.5
2024-02-11T10:24:29.987Z,994.5
2024-02-11T10:25:29.985Z,994.5
2024-02-11T10:26:30.074Z,994.5
2024-02-11T10:27:30.035Z,994.5
2024-02-11T10:28:30.059Z,994.5
2024-02-11T10:29:30.298Z,994.4
2024-02-11T10:30:29.980Z,994.4
2024-02-11T10:31:30.040Z,994.4
2024-02-11T10:32:32.362Z,994.4
2024-02-11T10:33:30.457Z,994.4
2024-02-11T10:34:29.988Z,994.4
2024-02-11T10:35:30.037Z,994.4
2024-02-11T10:36:29.955Z,994.4
2024-02-11T10:37:29.969Z,994.4
2024-02-11T10:38:30.060Z,994.5
2024-02-11T10:39:30.200Z,994.5
2024-02-11T10:40:30.057Z,994.5
2024-02-11T10:41:30.117Z,994.5
2024-02-11T10:42:29.958Z,994.6
2024-02-11T10:43:29.985Z,994.6
2024-02-11T10:44:30.154Z,994.5
2024-02-11T10:45:30.143Z,994.5
2024-02-11T10:46:30.059Z,994.5
2024-02-11T10:47:30.064Z,994.5
2024-02-11T10:48:30.097Z,994.5
2024-02-11T10:49:29.994Z,994.6
2024-02-11T10:50:30.156Z,994.5
2024-02-11T10:51:29.979Z,994.6
2024-02-11T10:52:30.166Z,994.6
2024-02-11T10:53:32.492Z,994.5
2024-02-11T10:54:30.000Z,994.6
2024-02-11T10:55:30.187Z,994.6
2024-02-11T10:56:29.986Z,994.5
2024-02-11T10:57:29.988Z,994.6
2024-02-11T10:58:30.103Z,994.7
2024-02-11T10:59:30.009Z,994.6
2024-02-11T11:00:29.998Z,994.6
2024-02-11T11:01:29.864Z,994.6
2024-02-11T11:02:29.990Z,994.5
2024-02-11T11:03:30.210Z,994.6
2024-02-11T11:04:30.045Z,994.6
2024-02-11T11:05:30.291Z,994.6
2024-02-11T11:06:29.960Z,994.6
2024-02-11T11:07:34.176Z,994.6
2024-02-11T11:08:30.023Z,994.5
2024-02-11T11:09:29.935Z,994.6
2024-02-11T11:10:29.924Z,994.5
2024-02-11T11:11:29.882Z,994.5
2024-02-11T11:12:29.922Z,994.6
2024-02-11T11:13:30.177Z,994.5
2024-02-11T11:14:32.102Z,994.5
2024-02-11T11:15:29.891Z,994.5
2024-02-11T11:16:29.876Z,994.5
2024-02-11T11:17:30.015Z,994.5
2024-02-11T11:18:29.922Z,994.6
2024-02-11T11:19:29.905Z,994.5
2024-02-11T11:20:30.010Z,994.6
2024-02-11T11:21:31.417Z,994.5
2024-02-11T11:22:30.028Z,994.5
2024-02-11T11:23:29.917Z,994.5
2024-02-11T11:24:29.855Z,994.6
2024-02-11T11:25:30.607Z,994.5
2024-02-11T11:26:29.978Z,994.6
2024-02-11T11:27:29.850Z,994.5
2024-02-11T11:28:29.872Z,994.6
2024-02-11T11:29:30.615Z,994.5
2024-02-11T11:30:29.866Z,994.6
2024-02-11T11:31:29.932Z,994.5
2024-02-11T11:32:29.952Z,994.6
2024-02-11T11:33:32.770Z,994.6
2024-02-11T11:34:29.968Z,994.5
2024-02-11T11:35:32.031Z,994.5
2024-02-11T11:36:29.871Z,994.5
2024-02-11T11:37:29.918Z,994.5
2024-02-11T11:38:30.042Z,994.5
2024-02-11T11:39:33.036Z,994.5
2024-02-11T11:40:30.516Z,994.5
2024-02-11T11:41:30.655Z,994.5
2024-02-11T11:42:30.679Z,994.4
2024-02-11T11:43:30.647Z,994.5
2024-02-11T11:44:30.574Z,994.5
2024-02-11T11:45:33.811Z,994.4
2024-02-11T11:46:30.526Z,994.5
2024-02-11T11:47:30.789Z,994.5
2024-02-11T11:48:30.592Z,994.5
2024-02-11T11:49:30.581Z,994.4
2024-02-11T11:50:30.618Z,994.4
2024-02-11T11:51:33.801Z,994.5
2024-02-11T11:52:29.856Z,994.4
2024-02-11T11:53:29.923Z,994.4
2024-02-11T11:54:29.896Z,994.5
2024-02-11T11:55:30.006Z,994.4
2024-02-11T11:56:32.243Z,994.4
2024-02-11T11:57:32.843Z,994.4
2024-02-11T11:58:29.805Z,994.5
2024-02-11T11:59:29.871Z,994.4
2024-02-11T12:00:29.795Z,994.4
2024-02-11T12:01:29.918Z,994.3
2024-02-11T12:02:30.116Z,994.4
2024-02-11T12:03:29.860Z,994.4
2024-02-11T12:04:29.846Z,994.4
2024-02-11T12:05:29.910Z,994.4
2024-02-11T12:06:29.909Z,994.3
2024-02-11T12:07:29.811Z,994.4
2024-02-11T12:08:30.022Z,994.3
2024-02-11T12:09:29.901Z,994.3
2024-02-11T12:10:29.901Z,994.3
2024-02-11T12:11:30.007Z,994.3
2024-02-11T12:12:29.872Z,994.3
2024-02-11T12:13:29.878Z,994.2
2024-02-11T12:14:29.885Z,994.3
2024-02-11T12:15:29.923Z,994.4
2024-02-11T12:16:29.872Z,994.3
2024-02-11T12:17:32.782Z,994.3
2024-02-11T12:18:29.825Z,994.3
2024-02-11T12:19:29.821Z,994.3
2024-02-11T12:20:29.829Z,994.3
2024-02-11T12:21:29.810Z,994.3
2024-02-11T12:22:29.803Z,994.2
2024-02-11T12:23:30.031Z,994.3
2024-02-11T12:24:29.796Z,994.2
2024-02-11T12:25:29.801Z,994.2
2024-02-11T12:26:31.019Z,994.3
2024-02-11T12:27:29.754Z,994.3
2024-02-11T12:28:29.732Z,994.2
2024-02-11T12:29:29.823Z,994.3
2024-02-11T12:30:29.811Z,994.3
2024-02-11T12:31:29.788Z,994.2
2024-02-11T12:32:31.319Z,994.2
2024-02-11T12:33:29.899Z,994.3
2024-02-11T12:34:30.200Z,994.2
2024-02-11T12:35:29.779Z,994.2
2024-02-11T12:36:29.977Z,994.2
2024-02-11T12:37:30.467Z,994.2
2024-02-11T12:38:32.561Z,994.2
2024-02-11T12:39:29.761Z,994.2
2024-02-11T12:40:29.761Z,994.2
2024-02-11T12:41:29.792Z,994.2
2024-02-11T12:42:29.877Z,994.2
2024-02-11T12:43:29.727Z,994.2
2024-02-11T12:44:29.805Z,994.1
2024-02-11T12:45:29.787Z,994.3
2024-02-11T12:46:29.928Z,994.2
2024-02-11T12:47:29.976Z,994.2
2024-02-11T12:48:29.790Z,994.1
2024-02-11T12:49:29.738Z,994.1
2024-02-11T12:50:29.802Z,994.2
2024-02-11T12:51:29.728Z,994.1
2024-02-11T12:52:29.764Z,994.1